createdAt,value
2023-02-02T00:02:09.360Z,2.88
2023-02-02T00:04:42.302Z,2.92
2023-02-02T00:07:12.333Z,2.97
2023-02-02T00:09:42.659Z,2.99
2023-02-02T00:12:13.230Z,3.01
2023-02-02T00:14:43.529Z,3.12
2023-02-02T00:17:14.308Z,3.13
2023-02-02T00:19:47.256Z,3.15
2023-02-02T00:22:17.393Z,3.11
2023-02-02T00:24:47.665Z,3.23
2023-02-02T00:27:17.608Z,3.17
2023-02-02T00:29:48.080Z,3.21
2023-02-02T00:32:19.797Z,3.26
2023-02-02T00:35:00.007Z,3.31
2023-02-02T00:37:30.175Z,3.28
2023-02-02T00:40:00.503Z,3.34
2023-02-02T00:42:30.518Z,3.33
2023-02-02T00:45:13.230Z,3.33
2023-02-02T00:47:43.248Z,3.37
2023-02-02T00:50:19.381Z,3.39
2023-02-02T00:52:50.697Z,3.39
2023-02-02T00:55:22.509Z,3.37
2023-02-02T00:57:53.132Z,3.37
2023-02-02T01:00:27.019Z,3.41
2023-02-02T01:03:04.316Z,3.51
2023-02-02T01:05:37.741Z,3.47
2023-02-02T01:08:08.542Z,3.52
2023-02-02T01:10:39.580Z,3.48
2023-02-02T01:13:10.180Z,3.40
2023-02-02T01:15:40.891Z,3.38
2023-02-02T01:18:11.171Z,3.34
2023-02-02T01:20:44.294Z,3.35
2023-02-02T01:23:14.562Z,3.35
2023-02-02T01:25:45.212Z,3.30
2023-02-02T01:28:15.478Z,3.27
2023-02-02T01:30:46.112Z,3.30
2023-02-02T01:33:16.327Z,3.26
2023-02-02T01:35:53.678Z,3.25
2023-02-02T01:38:26.998Z,3.28
2023-02-02T01:41:00.355Z,3.27
2023-02-02T01:43:58.911Z,3.26
2023-02-02T01:46:37.119Z,3.24
2023-02-02T01:49:12.724Z,3.26
2023-02-02T01:51:50.756Z,3.25
2023-02-02T01:54:29.100Z,3.24
2023-02-02T01:57:03.198Z,3.21
2023-02-02T01:59:34.235Z,3.22
2023-02-02T02:02:05.748Z,3.19
2023-02-02T02:04:38.624Z,3.16
2023-02-02T02:07:12.254Z,3.12
2023-02-02T02:09:42.506Z,3.08
2023-02-02T02:12:17.131Z,3.10
2023-02-02T02:15:02.583Z,3.08
2023-02-02T02:17:49.124Z,3.13
2023-02-02T02:20:56.840Z,3.12
2023-02-02T02:24:12.976Z,3.19
2023-02-02T02:27:10.204Z,3.27
2023-02-02T02:30:13.086Z,3.31
2023-02-02T02:32:52.197Z,3.33
2023-02-02T02:35:32.163Z,3.35
2023-02-02T02:38:07.376Z,3.33
2023-02-02T02:40:40.660Z,3.33
2023-02-02T02:43:16.289Z,3.34
2023-02-02T02:45:47.340Z,3.35
2023-02-02T02:48:20.120Z,3.36
2023-02-02T02:50:50.636Z,3.37
2023-02-02T02:53:24.579Z,3.37
2023-02-02T02:56:03.761Z,3.38
2023-02-02T02:58:43.372Z,3.36
2023-02-02T03:01:23.536Z,3.35
2023-02-02T03:04:09.839Z,3.37
2023-02-02T03:06:47.272Z,3.37
2023-02-02T03:09:22.559Z,3.38
2023-02-02T03:11:52.854Z,3.38
2023-02-02T03:14:22.815Z,3.41
2023-02-02T03:16:54.016Z,3.47
2023-02-02T03:19:26.847Z,3.49
2023-02-02T03:21:57.272Z,3.49
2023-02-02T03:24:27.196Z,3.48
2023-02-02T03:26:57.600Z,3.49
2023-02-02T03:29:28.047Z,3.50
2023-02-02T03:31:58.608Z,3.53
2023-02-02T03:34:31.143Z,3.53
2023-02-02T03:37:01.416Z,3.53
2023-02-02T03:39:31.419Z,3.49
2023-02-02T03:42:01.633Z,3.51
2023-02-02T03:44:31.600Z,3.54
2023-02-02T03:47:02.164Z,3.52
2023-02-02T03:49:35.027Z,3.51
2023-02-02T03:52:05.440Z,3.50
2023-02-02T03:54:35.375Z,3.53
2023-02-02T03:57:05.776Z,3.55
2023-02-02T03:59:35.933Z,3.56
2023-02-02T04:02:06.343Z,3.56
2023-02-02T04:04:39.016Z,3.56
2023-02-02T04:07:10.031Z,3.52
2023-02-02T04:09:40.052Z,3.52
2023-02-02T04:12:10.678Z,3.50
2023-02-02T04:14:42.129Z,3.49
2023-02-02T04:17:14.723Z,3.52
2023-02-02T04:19:47.352Z,3.50
2023-02-02T04:22:17.740Z,3.49
2023-02-02T04:24:47.905Z,3.47
2023-02-02T04:27:18.168Z,3.51
2023-02-02T04:29:48.080Z,3.52
2023-02-02T04:32:19.766Z,3.50
2023-02-02T04:34:52.222Z,3.50
2023-02-02T04:37:22.497Z,3.50
2023-02-02T04:39:53.867Z,3.53
2023-02-02T04:42:24.219Z,3.48
2023-02-02T04:44:54.398Z,3.49
2023-02-02T04:47:24.843Z,3.50
2023-02-02T04:49:57.637Z,3.51
2023-02-02T04:52:27.988Z,3.51
2023-02-02T04:54:57.968Z,3.51
2023-02-02T04:57:29.121Z,3.53
2023-02-02T04:59:59.020Z,3.55
2023-02-02T05:02:29.298Z,3.56
2023-02-02T05:05:02.248Z,3.54
2023-02-02T05:07:33.356Z,3.54
2023-02-02T05:10:03.568Z,3.50
2023-02-02T05:12:33.830Z,3.46
2023-02-02T05:15:05.410Z,3.50
2023-02-02T05:17:35.992Z,3.50
2023-02-02T05:20:09.320Z,3.47
2023-02-02T05:22:39.584Z,3.50
2023-02-02T05:25:11.155Z,3.50
2023-02-02T05:27:41.461Z,3.47
2023-02-02T05:30:14.520Z,3.44
2023-02-02T05:32:44.786Z,3.39
2023-02-02T05:35:17.588Z,3.41
2023-02-02T05:37:47.888Z,3.36
2023-02-02T05:40:18.017Z,3.35
2023-02-02T05:42:50.968Z,3.35
2023-02-02T05:45:20.881Z,3.39
2023-02-02T05:47:51.464Z,3.39
2023-02-02T05:50:24.423Z,3.37
2023-02-02T05:52:54.992Z,3.40
2023-02-02T05:55:25.563Z,3.42
2023-02-02T05:57:56.335Z,3.43
2023-02-02T06:00:26.692Z,3.46
2023-02-02T06:02:57.363Z,3.44
2023-02-02T06:05:30.278Z,3.49
2023-02-02T06:08:00.898Z,3.50
2023-02-02T06:10:31.491Z,3.44
2023-02-02T06:13:02.198Z,3.47
2023-02-02T06:15:33.019Z,3.45
2023-02-02T06:18:06.189Z,3.47
2023-02-02T06:20:39.338Z,3.45
2023-02-02T06:23:09.877Z,3.48
2023-02-02T06:25:40.078Z,3.50
2023-02-02T06:28:11.325Z,3.48
2023-02-02T06:30:43.915Z,3.48
2023-02-02T06:33:14.855Z,3.50
2023-02-02T06:35:47.620Z,3.49
2023-02-02T06:38:19.108Z,3.49
2023-02-02T06:40:49.362Z,3.50
2023-02-02T06:43:20.096Z,3.46
2023-02-02T06:45:50.292Z,3.45
2023-02-02T06:48:20.889Z,3.44
2023-02-02T06:50:53.893Z,3.45
2023-02-02T06:53:25.883Z,3.39
2023-02-02T06:55:57.098Z,3.40
2023-02-02T06:58:27.689Z,3.38
2023-02-02T07:00:58.202Z,3.39
2023-02-02T07:03:28.741Z,3.42
2023-02-02T07:06:01.579Z,3.45
2023-02-02T07:08:32.168Z,3.45
2023-02-02T07:11:11.285Z,3.48
2023-02-02T07:13:47.262Z,3.43
2023-02-02T07:16:18.742Z,3.44
2023-02-02T07:18:50.282Z,3.44
2023-02-02T07:21:24.756Z,3.42
2023-02-02T07:23:55.348Z,3.51
2023-02-02T07:26:26.076Z,3.49
2023-02-02T07:28:56.730Z,3.49
2023-02-02T07:31:29.396Z,3.49
2023-02-02T07:34:00.043Z,3.49
2023-02-02T07:36:32.928Z,3.45
2023-02-02T07:39:05.070Z,3.44
2023-02-02T07:41:37.350Z,3.49
2023-02-02T07:44:08.509Z,3.42
2023-02-02T07:46:38.791Z,3.44
2023-02-02T07:49:09.800Z,3.42
2023-02-02T07:51:47.215Z,3.49
2023-02-02T07:54:18.962Z,3.51
2023-02-02T07:56:49.245Z,3.53
2023-02-02T07:59:19.848Z,3.60
2023-02-02T08:01:50.048Z,3.60
2023-02-02T08:04:20.676Z,3.77
2023-02-02T08:06:53.604Z,3.81
2023-02-02T08:09:24.254Z,3.85
2023-02-02T08:11:54.586Z,3.87
2023-02-02T08:14:25.092Z,3.79
2023-02-02T08:16:55.144Z,3.81
2023-02-02T08:19:25.772Z,3.78
2023-02-02T08:21:58.387Z,3.91
2023-02-02T08:24:28.790Z,3.91
2023-02-02T08:26:58.908Z,3.88
2023-02-02T08:29:29.289Z,4.00
2023-02-02T08:32:00.261Z,4.04
2023-02-02T08:34:30.736Z,4.10
2023-02-02T08:37:03.376Z,4.10
2023-02-02T08:39:33.807Z,4.03
2023-02-02T08:42:03.794Z,4.10
2023-02-02T08:46:00.059Z,4.10
2023-02-02T08:47:23.993Z,4.27
2023-02-02T08:49:54.544Z,4.28
2023-02-02T08:52:27.237Z,4.25
2023-02-02T08:54:57.553Z,4.29
2023-02-02T08:57:27.613Z,4.34
2023-02-02T08:59:57.971Z,4.54
2023-02-02T09:02:27.982Z,4.40
2023-02-02T09:04:58.303Z,4.72
2023-02-02T09:07:30.846Z,4.70
2023-02-02T09:10:01.267Z,4.68
2023-02-02T09:12:31.437Z,4.89
2023-02-02T09:15:01.790Z,5.10
2023-02-02T09:17:31.861Z,4.89
2023-02-02T09:20:02.129Z,4.96
2023-02-02T09:22:35.414Z,4.93
2023-02-02T09:25:05.731Z,4.99
2023-02-02T09:27:41.084Z,4.82
2023-02-02T09:30:12.828Z,4.86
2023-02-02T09:32:42.767Z,5.03
2023-02-02T09:35:13.444Z,4.89
2023-02-02T09:40:37.675Z,4.84
2023-02-02T09:43:20.457Z,4.87
2023-02-02T09:45:57.857Z,5.14
2023-02-02T09:48:38.602Z,5.13
2023-02-02T09:51:16.006Z,5.03
2023-02-02T09:53:55.996Z,5.00
2023-02-02T09:56:32.233Z,5.32
2023-02-02T09:59:18.903Z,5.18
2023-02-02T10:01:55.474Z,5.38
2023-02-02T10:04:34.766Z,5.52
2023-02-02T10:07:15.412Z,5.59
2023-02-02T10:09:53.797Z,5.50
2023-02-02T10:12:35.938Z,5.45
2023-02-02T10:15:20.405Z,5.61
2023-02-02T10:17:56.856Z,5.47
2023-02-02T10:20:36.433Z,5.48
2023-02-02T10:23:14.866Z,5.52
2023-02-02T10:26:09.839Z,5.52
2023-02-02T10:28:46.355Z,5.62
2023-02-02T10:31:24.835Z,5.51
2023-02-02T10:34:05.309Z,5.47
2023-02-02T10:36:48.286Z,5.60
2023-02-02T10:39:25.637Z,5.66
2023-02-02T10:42:06.099Z,5.62
2023-02-02T10:44:42.516Z,5.66
2023-02-02T10:47:18.096Z,5.49
2023-02-02T10:49:53.761Z,5.65
2023-02-02T10:52:32.356Z,5.99
2023-02-02T10:55:07.407Z,6.23
2023-02-02T10:57:51.871Z,6.23
2023-02-02T11:00:27.097Z,6.22
2023-02-02T11:02:58.967Z,6.21
2023-02-02T11:05:44.684Z,6.11
2023-02-02T11:08:20.968Z,6.15
2023-02-02T11:10:55.543Z,6.25
2023-02-02T11:13:33.587Z,6.03
2023-02-02T11:16:41.325Z,5.89
2023-02-02T11:19:26.747Z,5.57
2023-02-02T11:21:59.340Z,5.66
2023-02-02T11:24:36.538Z,5.89
2023-02-02T11:27:15.328Z,5.91
2023-02-02T11:29:50.864Z,6.17
2023-02-02T11:32:30.821Z,6.40
2023-02-02T11:35:18.526Z,6.57
2023-02-02T11:38:01.842Z,6.58
2023-02-02T11:40:38.124Z,6.77
2023-02-02T11:43:19.997Z,6.70
2023-02-02T11:46:02.317Z,6.77
2023-02-02T11:48:36.634Z,6.84
2023-02-02T11:51:08.847Z,6.77
2023-02-02T11:53:45.583Z,6.74
2023-02-02T11:56:25.105Z,6.69
2023-02-02T11:58:59.138Z,6.60
2023-02-02T12:01:34.121Z,6.40
2023-02-02T12:04:05.827Z,6.32
2023-02-02T12:06:38.855Z,6.13
2023-02-02T12:09:17.903Z,6.05
2023-02-02T12:12:03.947Z,6.05
2023-02-02T12:14:46.351Z,6.04
2023-02-02T12:17:35.153Z,6.07
2023-02-02T12:20:19.670Z,6.16
2023-02-02T12:23:05.824Z,6.10
2023-02-02T12:25:50.290Z,5.96
2023-02-02T12:28:29.369Z,5.80
2023-02-02T12:31:06.032Z,5.80
2023-02-02T12:33:47.435Z,5.81
2023-02-02T12:36:38.972Z,5.85
2023-02-02T12:39:23.077Z,5.63
2023-02-02T12:42:14.263Z,5.54
2023-02-02T12:44:57.128Z,5.75
2023-02-02T12:47:35.025Z,6.27
2023-02-02T12:50:25.478Z,6.75
2023-02-02T12:53:17.004Z,6.77
2023-02-02T12:55:53.970Z,7.24
2023-02-02T12:58:33.683Z,7.47
2023-02-02T13:01:48.153Z,7.73
2023-02-02T13:04:45.571Z,8.05
2023-02-02T13:07:38.900Z,8.22
2023-02-02T13:10:19.933Z,7.66
2023-02-02T13:12:56.647Z,8.02
2023-02-02T13:15:34.522Z,8.27
2023-02-02T13:18:10.625Z,8.25
2023-02-02T13:20:46.499Z,8.10
2023-02-02T13:23:25.466Z,8.21
2023-02-02T13:26:01.104Z,8.42
2023-02-02T13:28:38.858Z,8.49
2023-02-02T13:31:19.536Z,8.72
2023-02-02T13:33:55.958Z,8.96
2023-02-02T13:36:30.753Z,8.84
2023-02-02T13:39:06.424Z,8.86
2023-02-02T13:41:37.046Z,8.18
2023-02-02T13:44:12.251Z,8.86
2023-02-02T13:46:51.763Z,9.01
2023-02-02T13:49:26.363Z,8.92
2023-02-02T13:52:08.333Z,8.96
2023-02-02T13:55:08.300Z,8.61
2023-02-02T13:58:20.296Z,8.74
2023-02-02T14:00:53.005Z,8.93
2023-02-02T14:03:38.372Z,8.83
2023-02-02T14:06:12.510Z,9.17
2023-02-02T14:08:50.829Z,9.22
2023-02-02T14:11:30.431Z,8.85
2023-02-02T14:14:21.520Z,9.04
2023-02-02T14:16:56.124Z,9.08
2023-02-02T14:19:54.958Z,9.07
2023-02-02T14:22:47.940Z,8.80
2023-02-02T14:25:48.619Z,8.72
2023-02-02T14:28:45.418Z,8.28
2023-02-02T14:31:54.076Z,8.30
2023-02-02T14:34:36.743Z,8.29
2023-02-02T14:37:31.030Z,8.47
2023-02-02T14:40:06.678Z,8.07
2023-02-02T14:43:02.607Z,8.06
2023-02-02T14:45:36.762Z,8.34
2023-02-02T14:48:13.005Z,8.18
2023-02-02T14:50:53.341Z,8.12
2023-02-02T14:53:28.541Z,8.06
2023-02-02T14:56:08.962Z,8.40
2023-02-02T14:58:43.904Z,8.31
2023-02-02T15:01:27.757Z,8.29
2023-02-02T15:03:59.156Z,8.18
2023-02-02T15:06:35.753Z,7.91
2023-02-02T15:09:41.407Z,7.70
2023-02-02T15:12:25.510Z,8.07
2023-02-02T15:15:05.027Z,8.05
2023-02-02T15:17:53.443Z,8.06
2023-02-02T15:20:31.993Z,7.83
2023-02-02T15:23:07.363Z,7.57
2023-02-02T15:25:47.127Z,7.38
2023-02-02T15:28:24.127Z,7.64
2023-02-02T15:31:02.646Z,7.64
2023-02-02T15:33:39.741Z,7.54
2023-02-02T15:36:25.996Z,7.29
2023-02-02T15:38:58.811Z,7.55
2023-02-02T15:41:34.881Z,7.52
2023-02-02T15:44:20.340Z,7.20
2023-02-02T15:46:52.085Z,7.32
2023-02-02T15:49:35.355Z,7.25
2023-02-02T15:52:18.807Z,7.18
2023-02-02T15:54:55.406Z,7.04
2023-02-02T15:57:32.017Z,6.80
2023-02-02T16:00:04.818Z,6.69
2023-02-02T16:02:42.086Z,6.79
2023-02-02T16:05:42.074Z,6.72
2023-02-02T16:08:20.484Z,6.82
2023-02-02T16:10:51.723Z,6.68
2023-02-02T16:13:28.197Z,6.56
2023-02-02T16:16:00.814Z,6.55
2023-02-02T16:18:32.307Z,6.50
2023-02-02T16:21:17.459Z,6.46
2023-02-02T16:23:49.280Z,6.55
2023-02-02T16:26:22.278Z,6.43
2023-02-02T16:28:53.089Z,6.39
2023-02-02T16:31:23.434Z,6.35
2023-02-02T16:33:54.103Z,6.36
2023-02-02T16:36:29.645Z,6.23
2023-02-02T16:39:01.496Z,6.29
2023-02-02T16:41:35.198Z,5.99
2023-02-02T16:44:45.692Z,6.02
2023-02-02T16:47:38.705Z,6.08
2023-02-02T16:50:32.702Z,6.18
2023-02-02T16:53:08.240Z,6.18
2023-02-02T16:55:50.581Z,6.15
2023-02-02T16:58:24.469Z,6.11
2023-02-02T17:01:14.811Z,6.01
2023-02-02T17:03:53.703Z,5.97
2023-02-02T17:06:50.085Z,5.96
2023-02-02T17:09:37.339Z,5.90
2023-02-02T17:12:33.806Z,5.82
2023-02-02T17:15:25.797Z,5.82
2023-02-02T17:17:56.934Z,5.78
2023-02-02T17:20:27.350Z,5.76
2023-02-02T17:23:01.159Z,5.75
2023-02-02T17:25:38.574Z,5.79
2023-02-02T17:28:13.588Z,5.80
2023-02-02T17:31:06.021Z,5.65
2023-02-02T17:33:38.301Z,5.52
2023-02-02T17:36:09.963Z,5.01
2023-02-02T17:38:40.380Z,4.63
2023-02-02T17:41:15.092Z,4.64
2023-02-02T17:43:59.458Z,4.66
2023-02-02T17:46:32.244Z,4.58
2023-02-02T17:49:02.694Z,4.54
2023-02-02T17:51:41.143Z,4.74
2023-02-02T17:54:15.487Z,4.82
2023-02-02T17:56:51.050Z,4.64
2023-02-02T17:59:23.551Z,4.65
2023-02-02T18:01:55.129Z,4.73
2023-02-02T18:04:26.935Z,4.70
2023-02-02T18:06:56.841Z,4.72
2023-02-02T18:09:27.451Z,4.73
2023-02-02T18:11:59.989Z,4.72
2023-02-02T18:14:30.312Z,4.72
2023-02-02T18:17:00.239Z,4.57
2023-02-02T18:19:30.677Z,4.60
2023-02-02T18:22:00.844Z,4.60
2023-02-02T18:24:31.239Z,4.58
2023-02-02T18:27:03.838Z,4.58
2023-02-02T18:29:34.628Z,4.50
2023-02-02T18:32:05.456Z,4.41
2023-02-02T18:34:36.747Z,4.19
2023-02-02T18:37:06.755Z,4.15
2023-02-02T18:39:37.460Z,4.20
2023-02-02T18:42:10.073Z,4.04
2023-02-02T18:44:40.314Z,3.86
2023-02-02T18:47:10.804Z,3.76
2023-02-02T18:49:41.172Z,3.84
2023-02-02T18:52:11.134Z,3.85
2023-02-02T18:54:41.503Z,3.81
2023-02-02T18:57:14.928Z,3.73
2023-02-02T18:59:46.380Z,3.73
2023-02-02T19:02:17.835Z,3.63
2023-02-02T19:05:00.509Z,3.73
2023-02-02T19:07:42.957Z,3.88
2023-02-02T19:10:14.155Z,3.65
2023-02-02T19:12:54.595Z,3.59
2023-02-02T19:15:28.807Z,3.26
2023-02-02T19:17:59.023Z,3.25
2023-02-02T19:20:30.953Z,3.31
2023-02-02T19:23:12.729Z,3.30
2023-02-02T19:25:46.386Z,3.24
2023-02-02T19:28:25.350Z,3.23
2023-02-02T19:30:58.027Z,3.03
2023-02-02T19:33:37.575Z,3.00
2023-02-02T19:36:10.337Z,2.90
2023-02-02T19:38:40.891Z,2.97
2023-02-02T19:41:19.997Z,2.99
2023-02-02T19:43:58.680Z,2.86
2023-02-02T19:46:32.414Z,2.87
2023-02-02T19:49:10.208Z,2.79
2023-02-02T19:51:45.416Z,2.83
2023-02-02T19:54:31.400Z,2.73
2023-02-02T19:57:03.821Z,2.83
2023-02-02T19:59:38.272Z,2.75
2023-02-02T20:02:44.074Z,2.65
2023-02-02T20:05:21.758Z,2.53
2023-02-02T20:07:58.829Z,2.43
2023-02-02T20:10:30.930Z,2.42
2023-02-02T20:13:01.583Z,2.45
2023-02-02T20:15:36.713Z,2.39
2023-02-02T20:18:13.876Z,2.29
2023-02-02T20:20:47.397Z,2.03
2023-02-02T20:23:42.015Z,2.18
2023-02-02T20:26:25.989Z,2.18
2023-02-02T20:28:59.080Z,2.21
2023-02-02T20:31:39.426Z,2.34
2023-02-02T20:34:25.449Z,2.46
2023-02-02T20:36:56.951Z,2.48
2023-02-02T20:39:32.065Z,2.49
2023-02-02T20:42:02.233Z,2.49
2023-02-02T20:44:35.020Z,2.51
2023-02-02T20:47:08.675Z,2.49
2023-02-02T20:49:40.244Z,2.43
2023-02-02T20:52:12.991Z,2.42
2023-02-02T20:54:43.427Z,2.35
2023-02-02T20:57:13.425Z,2.35
2023-02-02T20:59:43.719Z,2.26
2023-02-02T21:02:19.374Z,2.30
2023-02-02T21:04:50.866Z,2.36
2023-02-02T21:07:23.464Z,2.35
2023-02-02T21:09:54.112Z,2.37
2023-02-02T21:12:25.710Z,2.30
2023-02-02T21:14:56.639Z,2.29
2023-02-02T21:17:29.940Z,2.32
2023-02-02T21:20:00.339Z,2.34
2023-02-02T21:22:30.356Z,2.29
2023-02-02T21:25:26.003Z,2.30
2023-02-02T21:28:17.413Z,2.23
2023-02-02T21:30:47.755Z,2.23
2023-02-02T21:33:20.477Z,2.24
2023-02-02T21:35:50.711Z,2.18
2023-02-02T21:38:20.700Z,2.11
2023-02-02T21:40:51.611Z,2.11
2023-02-02T21:43:21.701Z,2.08
2023-02-02T21:45:53.433Z,2.04
2023-02-02T21:48:38.664Z,2.00
2023-02-02T21:51:42.867Z,2.06
2023-02-02T21:54:22.338Z,2.02
2023-02-02T21:56:53.844Z,2.04
2023-02-02T21:59:25.839Z,1.94
2023-02-02T22:01:56.162Z,1.91
2023-02-02T22:04:30.758Z,1.97
2023-02-02T22:07:03.486Z,1.97
2023-02-02T22:09:41.769Z,2.00
2023-02-02T22:12:20.481Z,2.00
2023-02-02T22:14:52.290Z,1.93
2023-02-02T22:17:25.953Z,1.93
2023-02-02T22:20:02.997Z,1.93
2023-02-02T22:22:38.024Z,1.81
2023-02-02T22:25:30.335Z,1.82
2023-02-02T22:28:04.159Z,1.79
2023-02-02T22:30:39.021Z,1.80
2023-02-02T22:33:13.117Z,1.72
2023-02-02T22:35:46.809Z,1.59
2023-02-02T22:38:20.035Z,1.53
2023-02-02T22:40:51.333Z,1.57
2023-02-02T22:43:24.156Z,1.61
2023-02-02T22:45:54.521Z,1.63
2023-02-02T22:48:25.125Z,1.65
2023-02-02T22:50:58.224Z,1.57
2023-02-02T22:53:28.500Z,1.59
2023-02-02T22:55:59.040Z,1.67
2023-02-02T22:58:29.396Z,1.67
2023-02-02T23:00:59.515Z,1.67
2023-02-02T23:03:30.007Z,1.62
2023-02-02T23:06:06.223Z,1.66
2023-02-02T23:08:38.943Z,1.67
2023-02-02T23:11:09.026Z,1.62
2023-02-02T23:13:41.653Z,1.59
2023-02-02T23:16:12.571Z,1.62
2023-02-02T23:18:43.005Z,1.55
2023-02-02T23:21:16.147Z,1.56
2023-02-02T23:23:47.338Z,1.54
2023-02-02T23:26:20.547Z,1.55
2023-02-02T23:29:08.246Z,1.52
2023-02-02T23:31:38.312Z,1.57
2023-02-02T23:34:08.606Z,1.45
2023-02-02T23:36:41.110Z,1.35
2023-02-02T23:39:11.351Z,1.37
2023-02-02T23:41:41.294Z,1.38
2023-02-02T23:44:11.655Z,1.28
2023-02-02T23:46:42.562Z,1.33
2023-02-02T23:49:13.247Z,1.35
2023-02-02T23:51:45.994Z,1.32
2023-02-02T23:54:17.224Z,1.29
2023-02-02T23:56:47.378Z,1.21
2023-02-02T23:59:17.802Z,1.20
